Time;durP1;ratioP1;P1;durP2;ratioP2;P2;SDS_P1;SDS_P2;PMS_P1;PMS_P2;Temp;Humidity;BMP_temperature;BMP_pressure;BME280_temperature;BME280_humidity;BME280_pressure;Samples;Min_cycle;Max_cycle;Signal;HPM_P1;HPM_P2
2022/12/06 00:01:10;;;;;;;11.85;3.80;;;5.20;99.90;;;;;;5072097;28;20051;-75
2022/12/06 00:03:36;;;;;;;14.35;3.88;;;5.20;99.90;;;;;;5071312;28;20037;-75
2022/12/06 00:06:05;;;;;;;12.32;3.90;;;5.10;99.90;;;;;;5058437;28;20044;-75
2022/12/06 00:08:31;;;;;;;13.27;4.10;;;5.10;99.90;;;;;;5054902;28;20025;-74
2022/12/06 00:11:12;;;;;;;12.05;3.58;;;5.10;99.90;;;;;;5076717;28;20236;-75
2022/12/06 00:13:39;;;;;;;12.15;4.00;;;5.10;99.90;;;;;;5056911;28;20041;-73
2022/12/06 00:16:10;;;;;;;13.18;3.58;;;5.10;99.90;;;;;;5074643;28;20051;-75
2022/12/06 00:18:38;;;;;;;10.73;3.63;;;5.00;99.90;;;;;;5055967;28;21072;-75
2022/12/06 00:21:11;;;;;;;11.95;3.40;;;5.00;99.90;;;;;;5076387;28;20101;-75
2022/12/06 00:23:41;;;;;;;13.13;4.40;;;5.00;99.90;;;;;;5075699;28;20397;-75
2022/12/06 00:26:09;;;;;;;15.30;4.72;;;5.10;99.90;;;;;;5053844;28;20059;-74
2022/12/06 00:28:36;;;;;;;13.27;4.57;;;4.90;99.90;;;;;;5076741;28;20410;-76
2022/12/06 00:31:04;;;;;;;14.73;4.25;;;4.90;99.90;;;;;;5074376;28;20066;-75
2022/12/06 00:33:30;;;;;;;14.50;3.50;;;4.90;99.90;;;;;;5106392;28;20048;-75
2022/12/06 00:35:57;;;;;;;13.50;4.47;;;4.90;99.90;;;;;;5063218;28;20056;-75
2022/12/06 00:38:24;;;;;;;11.02;4.00;;;4.90;99.90;;;;;;5098235;28;20063;-74
2022/12/06 00:40:56;;;;;;;12.60;5.13;;;4.90;99.90;;;;;;5104646;28;20052;-75
2022/12/06 00:43:22;;;;;;;13.13;5.20;;;5.00;99.90;;;;;;5101219;28;20129;-75
2022/12/06 00:45:48;;;;;;;12.85;4.43;;;5.00;99.90;;;;;;5091088;28;20036;-75
2022/12/06 00:48:14;;;;;;;12.98;3.60;;;5.00;99.90;;;;;;5100819;28;20039;-74
2022/12/06 00:50:40;;;;;;;12.98;3.75;;;5.00;99.90;;;;;;5073075;28;20054;-74
2022/12/06 00:53:06;;;;;;;11.80;3.55;;;5.00;99.90;;;;;;5091079;28;20497;-74
2022/12/06 00:55:31;;;;;;;9.63;3.30;;;5.00;99.90;;;;;;5092965;28;20109;-74
2022/12/06 00:57:57;;;;;;;9.65;3.17;;;5.10;99.90;;;;;;5104806;28;20039;-74
2022/12/06 01:00:23;;;;;;;8.90;3.10;;;5.10;99.90;;;;;;5105581;28;20039;-74
2022/12/06 01:02:49;;;;;;;10.30;3.03;;;5.10;99.90;;;;;;5111698;28;20068;-75
2022/12/06 01:05:15;;;;;;;12.43;3.30;;;5.10;99.90;;;;;;5076927;28;20080;-75
2022/12/06 01:07:41;;;;;;;8.40;2.45;;;5.10;99.90;;;;;;5056313;28;20032;-76
2022/12/06 01:10:07;;;;;;;9.77;2.75;;;4.90;99.90;;;;;;5100287;28;20458;-75
2022/12/06 01:12:33;;;;;;;9.18;2.55;;;5.10;99.90;;;;;;5072839;28;20032;-75
2022/12/06 01:14:58;;;;;;;8.77;2.50;;;5.10;99.90;;;;;;5085143;28;20517;-75
2022/12/06 01:17:24;;;;;;;8.57;2.65;;;5.00;99.90;;;;;;5093706;28;20043;-75
2022/12/06 01:19:50;;;;;;;12.27;2.70;;;5.00;99.90;;;;;;5091111;28;20040;-74
2022/12/06 01:22:18;;;;;;;9.20;2.30;;;4.40;99.90;;;;;;5108093;28;20047;-75
2022/12/06 01:24:46;;;;;;;7.20;2.50;;;5.50;99.90;;;;;;5077564;28;20056;-74
2022/12/06 01:27:11;;;;;;;8.20;2.40;;;5.10;99.90;;;;;;5095059;28;20044;-74
2022/12/06 01:29:37;;;;;;;7.55;2.13;;;5.10;99.90;;;;;;5072799;28;20059;-75
2022/12/06 01:32:03;;;;;;;10.32;2.33;;;5.10;99.90;;;;;;5089868;28;20040;-75
2022/12/06 01:34:29;;;;;;;5.72;1.85;;;6.40;99.90;;;;;;5075625;28;20056;-74
2022/12/06 01:36:55;;;;;;;5.60;1.70;;;6.70;99.90;;;;;;5106036;28;20043;-74
2022/12/06 01:39:20;;;;;;;6.75;2.10;;;5.10;99.90;;;;;;5088913;28;20090;-74
2022/12/06 01:41:46;;;;;;;7.70;2.08;;;5.40;99.90;;;;;;5094886;28;20047;-74
2022/12/06 01:44:36;;;;;;;7.32;2.00;;;5.00;99.90;;;;;;5090571;28;20485;-75
2022/12/06 01:47:03;;;;;;;6.70;1.67;;;5.00;99.90;;;;;;5102632;28;20111;-74
2022/12/06 01:49:36;;;;;;;5.78;1.80;;;5.00;99.90;;;;;;5091001;28;20114;-75
2022/12/06 01:52:06;;;;;;;5.78;1.70;;;5.00;99.90;;;;;;5099494;28;20039;-75
2022/12/06 01:54:33;;;;;;;5.97;1.80;;;6.30;99.90;;;;;;5073252;28;20055;-74
2022/12/06 01:57:03;;;;;;;4.43;1.70;;;5.00;99.90;;;;;;5090362;28;20043;-75
2022/12/06 01:59:30;;;;;;;6.13;1.65;;;5.00;99.90;;;;;;5088546;28;20091;-75
2022/12/06 02:01:56;;;;;;;6.40;1.80;;;5.00;99.90;;;;;;5101735;28;20067;-75
2022/12/06 02:04:23;;;;;;;6.20;1.70;;;5.30;99.90;;;;;;5072575;28;20097;-74
2022/12/06 02:06:51;;;;;;;7.32;1.90;;;5.20;99.90;;;;;;5072389;28;20044;-74
2022/12/06 02:09:17;;;;;;;8.43;1.90;;;5.00;99.90;;;;;;5090101;28;20040;-74
2022/12/06 02:11:44;;;;;;;6.63;1.98;;;5.60;99.90;;;;;;5092233;28;20044;-74
2022/12/06 02:14:13;;;;;;;6.10;2.00;;;5.00;99.90;;;;;;5088508;28;20428;-75
2022/12/06 02:17:07;;;;;;;6.55;1.67;;;5.00;99.90;;;;;;5088770;28;20127;-75
2022/12/06 02:19:33;;;;;;;6.97;2.10;;;5.00;99.90;;;;;;5102139;28;20454;-74
2022/12/06 02:22:24;;;;;;;7.60;2.10;;;5.00;99.90;;;;;;5077780;28;20115;-75
2022/12/06 02:25:30;;;;;;;7.47;2.10;;;4.90;99.90;;;;;;5068105;28;20044;-75
2022/12/06 02:27:58;;;;;;;8.55;1.90;;;4.90;99.90;;;;;;5040991;28;20033;-75
2022/12/06 02:30:52;;;;;;;7.53;2.30;;;4.50;99.90;;;;;;5082938;28;20509;-74
2022/12/06 02:33:34;;;;;;;8.52;2.35;;;5.00;99.90;;;;;;5101483;28;20101;-74
2022/12/06 02:36:11;;;;;;;6.57;2.10;;;4.90;99.90;;;;;;5096737;28;20396;-74
2022/12/06 02:39:17;;;;;;;8.23;2.30;;;4.90;99.90;;;;;;5086978;28;20050;-75
2022/12/06 02:42:07;;;;;;;6.22;2.05;;;4.90;99.90;;;;;;5091805;28;20051;-75
2022/12/06 02:44:42;;;;;;;7.18;2.20;;;4.90;99.90;;;;;;5086794;28;20041;-74
2022/12/06 02:47:10;;;;;;;7.13;2.00;;;4.90;99.90;;;;;;5099501;28;20043;-75
2022/12/06 02:49:43;;;;;;;7.18;2.25;;;4.90;99.90;;;;;;5089740;28;20096;-75
2022/12/06 02:52:11;;;;;;;8.93;2.42;;;4.90;99.90;;;;;;5090155;28;20227;-74
2022/12/06 02:54:39;;;;;;;7.15;2.28;;;5.40;99.90;;;;;;5076958;28;20050;-74
2022/12/06 02:57:05;;;;;;;11.27;2.40;;;4.80;99.90;;;;;;5099075;28;20036;-73
2022/12/06 02:59:31;;;;;;;7.20;2.25;;;4.80;99.90;;;;;;5103180;28;20051;-75
2022/12/06 03:02:00;;;;;;;8.60;2.47;;;4.80;99.90;;;;;;5110668;28;20046;-74
2022/12/06 03:04:31;;;;;;;7.63;2.55;;;5.30;99.90;;;;;;5096398;28;20031;-75
2022/12/06 03:07:09;;;;;;;10.57;2.85;;;4.90;99.90;;;;;;5095092;28;20217;-75
2022/12/06 03:09:37;;;;;;;10.00;2.72;;;4.80;99.90;;;;;;5095490;28;20039;-75
2022/12/06 03:12:18;;;;;;;8.30;2.70;;;5.50;99.90;;;;;;5093102;28;20551;-75
2022/12/06 03:14:57;;;;;;;7.25;2.55;;;4.80;99.90;;;;;;5095548;28;20043;-74
2022/12/06 03:17:32;;;;;;;9.75;2.75;;;5.70;99.90;;;;;;5097939;28;20488;-74
2022/12/06 03:20:11;;;;;;;11.80;2.60;;;4.80;99.90;;;;;;5093409;28;20044;-74
2022/12/06 03:22:43;;;;;;;9.68;2.28;;;4.80;99.90;;;;;;5096158;28;20044;-74
2022/12/06 03:25:09;;;;;;;8.15;2.20;;;5.10;99.90;;;;;;5091158;28;20048;-75
2022/12/06 03:27:41;;;;;;;10.27;2.35;;;6.10;99.90;;;;;;5092259;28;20493;-74
2022/12/06 03:30:09;;;;;;;7.30;2.50;;;4.90;99.90;;;;;;5092950;28;20078;-75
2022/12/06 03:32:37;;;;;;;8.40;2.35;;;4.90;99.90;;;;;;5094246;28;20152;-75
2022/12/06 03:35:08;;;;;;;6.93;2.40;;;5.70;99.90;;;;;;5108509;27;20445;-75
2022/12/06 03:37:37;;;;;;;8.02;2.30;;;4.90;99.90;;;;;;5092729;28;20569;-74
2022/12/06 03:40:09;;;;;;;8.75;2.50;;;4.80;99.90;;;;;;5090949;28;20028;-75
2022/12/06 03:42:35;;;;;;;9.20;2.50;;;4.80;99.90;;;;;;5096004;28;20040;-75
2022/12/06 03:45:03;;;;;;;10.88;2.58;;;5.20;99.90;;;;;;5091015;28;20043;-74
2022/12/06 03:47:36;;;;;;;9.35;2.67;;;4.80;99.90;;;;;;5090438;28;20032;-75
2022/12/06 03:50:09;;;;;;;10.20;2.65;;;6.10;99.90;;;;;;5121489;27;20604;-75
2022/12/06 03:52:37;;;;;;;9.38;2.60;;;4.80;99.90;;;;;;5106669;28;20401;-75
2022/12/06 03:55:03;;;;;;;8.10;2.63;;;4.80;99.90;;;;;;5109906;28;20096;-73
2022/12/06 03:57:29;;;;;;;9.02;3.05;;;4.80;99.90;;;;;;5110970;28;20396;-73
2022/12/06 03:59:54;;;;;;;7.50;2.80;;;4.80;99.90;;;;;;5091515;28;20048;-74
2022/12/06 04:02:20;;;;;;;8.88;2.75;;;4.70;99.90;;;;;;5076907;28;20085;-75
2022/12/06 04:04:46;;;;;;;10.98;2.65;;;4.70;99.90;;;;;;5077715;28;20561;-74
2022/12/06 04:07:12;;;;;;;9.90;2.78;;;4.70;99.90;;;;;;5083436;28;20036;-74
2022/12/06 04:10:01;;;;;;;8.75;2.60;;;4.70;99.90;;;;;;5082869;28;20081;-74
2022/12/06 04:15:12;;;;;;;9.13;3.00;;;4.70;99.90;;;;;;5091639;28;20509;-74
2022/12/06 04:20:24;;;;;;;8.65;3.00;;;5.70;99.90;;;;;;5090028;28;20043;-75
2022/12/06 04:23:08;;;;;;;8.43;2.80;;;5.10;99.90;;;;;;5099375;28;20046;-74
2022/12/06 04:25:41;;;;;;;10.00;2.65;;;4.50;99.90;;;;;;5092332;28;20052;-75
2022/12/06 04:39:11;;;;;;;9.82;3.17;;;4.60;99.90;;;;;;5083670;28;20047;-73
2022/12/06 04:44:21;;;;;;;11.20;3.00;;;4.70;99.90;;;;;;5089985;28;20055;-75
2022/12/06 04:46:47;;;;;;;8.05;2.50;;;4.50;99.90;;;;;;5101343;28;20430;-74
2022/12/06 04:49:13;;;;;;;10.27;2.72;;;5.40;99.90;;;;;;5090064;28;20042;-74
2022/12/06 04:51:38;;;;;;;6.13;2.20;;;4.40;99.90;;;;;;5082647;28;20039;-75
2022/12/06 04:54:06;;;;;;;7.72;2.30;;;4.40;99.90;;;;;;5090354;28;20522;-75
2022/12/06 04:56:32;;;;;;;8.65;2.33;;;4.40;99.90;;;;;;5092469;28;20050;-75
2022/12/06 04:58:57;;;;;;;8.50;2.67;;;5.60;99.90;;;;;;5093873;28;20114;-75
2022/12/06 05:01:23;;;;;;;8.05;2.45;;;4.30;99.90;;;;;;5089648;28;20078;-75
2022/12/06 05:03:49;;;;;;;8.13;2.40;;;;;;;;;;5091309;28;20069;-75
2022/12/06 05:06:15;;;;;;;8.60;2.20;;;4.20;99.90;;;;;;5078428;28;20051;-75
2022/12/06 05:08:40;;;;;;;7.80;2.30;;;4.20;99.90;;;;;;5089772;28;20039;-74
2022/12/06 05:11:06;;;;;;;7.65;2.60;;;4.50;99.90;;;;;;5099896;28;20035;-74
2022/12/06 05:13:32;;;;;;;7.97;2.50;;;4.10;99.90;;;;;;5101009;28;20042;-74
2022/12/06 05:16:00;;;;;;;9.27;2.50;;;4.00;99.90;;;;;;5092322;28;20442;-74
2022/12/06 05:18:26;;;;;;;7.15;2.40;;;4.00;99.90;;;;;;5096639;28;20409;-75
2022/12/06 05:21:07;;;;;;;9.27;2.60;;;3.90;99.90;;;;;;5072417;28;20151;-74
2022/12/06 05:23:33;;;;;;;8.13;2.70;;;3.90;99.90;;;;;;5090748;28;20202;-75
2022/12/06 05:26:00;;;;;;;8.00;2.42;;;3.90;99.90;;;;;;5110916;28;20078;-75
2022/12/06 05:28:27;;;;;;;9.30;2.60;;;3.80;99.90;;;;;;5098572;28;20044;-74
2022/12/06 05:30:54;;;;;;;8.38;2.22;;;3.80;99.90;;;;;;5089407;28;20047;-75
2022/12/06 05:33:19;;;;;;;13.98;2.50;;;3.80;99.90;;;;;;5081728;28;20401;-74
2022/12/06 05:35:49;;;;;;;6.88;2.28;;;3.70;99.90;;;;;;5078291;28;20062;-75
2022/12/06 05:38:14;;;;;;;6.15;2.30;;;3.70;99.90;;;;;;5102946;28;20042;-75
2022/12/06 05:40:41;;;;;;;6.53;2.30;;;4.20;99.90;;;;;;5088975;28;20404;-75
2022/12/06 05:43:09;;;;;;;6.47;2.10;;;4.80;99.90;;;;;;5088983;28;20032;-74
2022/12/06 05:45:38;;;;;;;6.70;2.13;;;4.30;99.90;;;;;;5093923;28;20036;-75
2022/12/06 05:48:05;;;;;;;6.93;2.22;;;3.70;99.90;;;;;;5088339;28;20047;-75
2022/12/06 05:50:32;;;;;;;8.40;2.28;;;3.80;99.90;;;;;;5101275;28;20055;-75
2022/12/06 05:52:59;;;;;;;6.63;2.28;;;4.20;99.90;;;;;;5071672;28;20052;-75
2022/12/06 05:55:26;;;;;;;10.43;2.30;;;3.70;99.90;;;;;;5080289;28;20058;-74
2022/12/06 05:57:52;;;;;;;6.15;2.10;;;3.70;99.90;;;;;;5091748;28;20032;-76
2022/12/06 06:00:18;;;;;;;6.50;2.30;;;3.70;99.90;;;;;;5091147;28;20097;-74
2022/12/06 06:02:44;;;;;;;8.07;2.40;;;3.70;99.90;;;;;;5090862;28;20114;-75
2022/12/06 06:05:13;;;;;;;6.85;2.15;;;3.60;99.90;;;;;;5091399;28;20036;-75
2022/12/06 06:07:39;;;;;;;7.20;2.10;;;3.90;99.90;;;;;;5078986;28;20134;-75
2022/12/06 06:10:06;;;;;;;8.57;2.38;;;3.60;99.90;;;;;;5094398;28;20044;-74
2022/12/06 06:12:32;;;;;;;8.73;2.13;;;3.50;99.90;;;;;;5093607;28;20047;-74
2022/12/06 06:14:57;;;;;;;9.23;2.55;;;3.00;99.90;;;;;;5071448;28;20478;-74
2022/12/06 06:17:23;;;;;;;8.95;2.33;;;3.50;99.90;;;;;;5097577;28;20063;-74
2022/12/06 06:19:50;;;;;;;8.98;2.35;;;4.50;99.90;;;;;;5081152;28;20101;-74
2022/12/06 06:22:17;;;;;;;7.60;2.50;;;3.40;99.90;;;;;;5090004;28;20040;-75
2022/12/06 06:24:43;;;;;;;10.10;3.15;;;3.40;99.90;;;;;;5072197;28;20119;-75
2022/12/06 06:27:10;;;;;;;11.95;2.78;;;3.30;99.90;;;;;;5083912;28;20133;-75
2022/12/06 06:29:36;;;;;;;16.70;3.22;;;3.40;99.90;;;;;;5081997;28;20079;-74
2022/12/06 06:32:02;;;;;;;10.25;3.20;;;3.40;99.90;;;;;;5097859;28;20063;-74
2022/12/06 06:34:28;;;;;;;10.10;3.17;;;3.90;99.90;;;;;;5075428;28;20079;-75
2022/12/06 06:36:53;;;;;;;13.30;3.30;;;3.40;99.90;;;;;;5102641;28;20035;-75
2022/12/06 06:39:22;;;;;;;12.63;3.70;;;3.50;99.90;;;;;;5067136;28;20409;-75
2022/12/06 06:41:48;;;;;;;9.50;3.17;;;3.50;99.90;;;;;;5102424;28;20042;-75
2022/12/06 06:44:17;;;;;;;12.80;3.50;;;3.50;99.90;;;;;;5112726;28;20122;-75
2022/12/06 06:46:46;;;;;;;9.10;3.13;;;3.50;99.90;;;;;;5112651;28;20059;-75
2022/12/06 06:49:11;;;;;;;8.65;2.80;;;3.90;99.90;;;;;;5112474;28;20036;-75
2022/12/06 06:51:37;;;;;;;7.85;2.60;;;3.50;99.90;;;;;;5086600;28;20510;-74
2022/12/06 06:54:03;;;;;;;9.57;2.78;;;3.50;99.90;;;;;;5092979;28;20032;-75
2022/12/06 06:56:29;;;;;;;9.20;3.10;;;3.50;99.90;;;;;;5093496;28;20043;-74
2022/12/06 06:58:54;;;;;;;8.80;2.85;;;3.80;99.90;;;;;;5091877;28;20123;-75
2022/12/06 07:01:22;;;;;;;8.25;3.10;;;3.40;99.90;;;;;;5100846;28;20044;-74
2022/12/06 07:03:49;;;;;;;8.90;2.78;;;3.70;99.90;;;;;;5075307;28;20081;-74
2022/12/06 07:06:15;;;;;;;8.27;2.60;;;3.40;99.90;;;;;;5080895;28;20036;-75
2022/12/06 07:08:41;;;;;;;10.02;2.60;;;3.30;99.90;;;;;;5092399;28;20053;-75
2022/12/06 07:11:09;;;;;;;8.32;2.60;;;3.30;99.90;;;;;;5090560;28;20035;-75
2022/12/06 07:13:36;;;;;;;6.80;2.40;;;3.20;99.90;;;;;;5088870;28;20059;-75
2022/12/06 07:16:04;;;;;;;8.88;2.70;;;3.50;99.90;;;;;;5088442;28;20043;-74
2022/12/06 07:18:29;;;;;;;7.70;2.63;;;3.20;99.90;;;;;;5094247;28;20401;-76
2022/12/06 07:21:02;;;;;;;11.98;2.95;;;3.60;99.90;;;;;;5063221;28;20036;-74
2022/12/06 07:23:29;;;;;;;7.38;2.58;;;3.10;99.90;;;;;;5097720;28;20048;-75
2022/12/06 07:26:16;;;;;;;8.07;2.90;;;3.10;99.90;;;;;;5105777;28;20052;-75
2022/12/06 07:28:43;;;;;;;8.75;3.13;;;3.10;99.90;;;;;;5101583;28;20497;-74
2022/12/06 07:31:11;;;;;;;9.98;3.15;;;4.40;99.90;;;;;;5096471;28;20074;-74
2022/12/06 07:33:43;;;;;;;7.70;2.70;;;3.10;99.90;;;;;;5105910;28;20047;-76
2022/12/06 07:36:11;;;;;;;9.05;2.90;;;4.60;99.90;;;;;;5093330;28;20173;-75
2022/12/06 07:38:37;;;;;;;8.05;2.60;;;3.30;99.90;;;;;;5092494;28;20044;-75
2022/12/06 07:46:41;;;;;;;9.07;3.15;;;3.00;99.90;;;;;;5091496;28;20040;-77
2022/12/06 07:49:07;;;;;;;8.50;3.05;;;3.00;99.90;;;;;;5059760;28;20043;-74
2022/12/06 07:51:33;;;;;;;14.65;3.10;;;3.50;99.90;;;;;;5093237;28;20035;-74
2022/12/06 07:53:59;;;;;;;10.35;3.28;;;3.00;99.90;;;;;;5090815;28;20040;-74
2022/12/06 07:56:24;;;;;;;12.82;4.00;;;3.10;99.90;;;;;;5099345;28;20378;-75
2022/12/06 07:58:53;;;;;;;9.38;3.78;;;3.70;99.90;;;;;;5082720;28;20119;-76
2022/12/06 08:01:19;;;;;;;14.00;4.20;;;3.00;99.90;;;;;;5088415;28;20050;-77
2022/12/06 08:03:45;;;;;;;9.18;3.80;;;3.00;99.90;;;;;;5096216;28;20142;-74
2022/12/06 08:06:14;;;;;;;10.68;4.18;;;3.90;99.90;;;;;;5060461;28;20134;-76
2022/12/06 08:08:39;;;;;;;10.85;4.60;;;3.10;99.90;;;;;;5081560;28;20066;-75
2022/12/06 08:11:07;;;;;;;10.77;4.55;;;3.10;99.90;;;;;;5085367;28;20127;-74
2022/12/06 08:13:34;;;;;;;13.95;4.35;;;3.60;99.90;;;;;;5094378;28;20040;-75
2022/12/06 08:16:11;;;;;;;15.68;5.82;;;3.20;99.90;;;;;;5091658;28;20101;-75
2022/12/06 08:18:40;;;;;;;13.85;5.50;;;3.10;99.90;;;;;;5095618;28;20048;-75
2022/12/06 08:21:07;;;;;;;17.05;5.20;;;3.40;99.90;;;;;;5065717;28;20425;-77
2022/12/06 08:23:33;;;;;;;12.27;4.68;;;4.60;99.90;;;;;;5073528;28;20032;-75
2022/12/06 08:26:06;;;;;;;11.68;4.85;;;3.50;99.90;;;;;;5092941;28;20062;-74
2022/12/06 08:28:34;;;;;;;13.38;5.50;;;3.50;99.90;;;;;;5094220;28;20031;-75
2022/12/06 08:31:08;;;;;;;15.55;5.45;;;4.60;99.90;;;;;;5100537;28;20044;-75
2022/12/06 08:33:36;;;;;;;10.90;4.90;;;3.80;99.90;;;;;;5087981;28;20508;-75
2022/12/06 08:36:07;;;;;;;13.02;5.70;;;3.60;99.90;;;;;;5090953;28;20044;-75
2022/12/06 08:38:35;;;;;;;11.23;5.43;;;3.70;99.90;;;;;;5076014;28;20521;-74
2022/12/06 08:41:00;;;;;;;12.48;5.50;;;4.10;99.90;;;;;;5109025;28;20047;-74
2022/12/06 08:43:29;;;;;;;13.82;5.75;;;;;;;;;;5077741;28;20047;-75
2022/12/06 08:45:55;;;;;;;14.35;5.95;;;3.90;99.90;;;;;;5090732;28;20032;-75
2022/12/06 08:48:21;;;;;;;12.18;5.55;;;3.90;99.90;;;;;;5075161;28;20554;-75
2022/12/06 08:50:47;;;;;;;11.95;5.15;;;3.90;99.90;;;;;;5103395;28;20062;-76
2022/12/06 08:53:13;;;;;;;12.77;5.22;;;5.20;99.90;;;;;;5072643;28;20488;-74
2022/12/06 08:55:40;;;;;;;11.65;4.95;;;3.90;99.90;;;;;;5093933;28;21742;-75
2022/12/06 08:58:09;;;;;;;13.45;5.10;;;4.00;99.90;;;;;;5086432;28;20090;-75
2022/12/06 09:00:34;;;;;;;11.45;4.82;;;3.90;99.90;;;;;;5087995;28;20284;-75
2022/12/06 09:03:03;;;;;;;12.50;4.85;;;5.30;99.90;;;;;;5090511;28;21184;-74
2022/12/06 09:05:29;;;;;;;11.40;4.20;;;3.70;99.90;;;;;;5097337;28;20087;-75
2022/12/06 09:07:55;;;;;;;12.93;4.40;;;4.40;99.90;;;;;;5089009;28;20046;-75
2022/12/06 09:10:20;;;;;;;10.68;3.92;;;4.00;99.90;;;;;;5074181;28;20043;-74
2022/12/06 09:12:49;;;;;;;12.48;4.28;;;4.80;99.90;;;;;;5102063;28;20048;-73
2022/12/06 09:15:15;;;;;;;12.23;3.88;;;4.10;99.90;;;;;;5096349;27;20044;-75
2022/12/06 09:17:40;;;;;;;12.75;4.10;;;4.20;99.90;;;;;;5105633;28;20089;-76
2022/12/06 09:20:07;;;;;;;11.15;4.15;;;4.20;99.90;;;;;;5090954;28;20573;-75
2022/12/06 09:22:35;;;;;;;10.68;4.60;;;4.10;99.90;;;;;;5089166;28;20538;-76
2022/12/06 09:25:01;;;;;;;13.10;5.03;;;4.10;99.90;;;;;;5110870;28;20048;-75
2022/12/06 09:27:29;;;;;;;10.25;4.63;;;4.10;99.90;;;;;;5061433;28;20578;-76
2022/12/06 09:29:54;;;;;;;15.68;4.97;;;4.10;99.90;;;;;;5089966;28;20043;-76
2022/12/06 09:32:24;;;;;;;10.10;3.88;;;4.30;99.90;;;;;;5081016;28;20040;-75
2022/12/06 09:34:50;;;;;;;10.50;3.80;;;5.40;99.90;;;;;;5092356;28;20036;-75
2022/12/06 09:37:16;;;;;;;11.25;3.78;;;4.40;99.90;;;;;;5090371;28;20043;-74
2022/12/06 09:39:46;;;;;;;10.18;3.25;;;4.40;99.90;;;;;;5071177;28;20056;-76
2022/12/06 09:42:15;;;;;;;12.50;3.70;;;4.50;99.90;;;;;;5088355;28;20078;-75
2022/12/06 09:44:59;;;;;;;10.68;3.67;;;4.60;99.90;;;;;;5105755;28;20134;-76
2022/12/06 09:47:59;;;;;;;9.35;3.33;;;4.60;99.90;;;;;;5088232;28;20106;-76
2022/12/06 09:50:36;;;;;;;8.52;3.25;;;4.70;99.90;;;;;;5090070;28;20042;-75
2022/12/06 09:53:14;;;;;;;11.07;3.60;;;4.80;99.90;;;;;;5070872;28;20042;-75
2022/12/06 09:55:51;;;;;;;9.80;3.10;;;5.10;99.90;;;;;;5103836;28;20577;-75
2022/12/06 09:58:32;;;;;;;10.18;3.42;;;4.90;99.90;;;;;;5094293;28;20532;-75
2022/12/06 10:01:16;;;;;;;10.05;3.42;;;5.00;99.90;;;;;;5088386;28;20047;-75
2022/12/06 10:03:56;;;;;;;11.13;3.28;;;5.10;99.90;;;;;;5090754;28;20032;-75
2022/12/06 10:06:25;;;;;;;11.00;3.63;;;5.20;99.90;;;;;;5089585;28;20054;-74
2022/12/06 10:09:06;;;;;;;8.13;3.17;;;5.90;99.90;;;;;;5095963;28;20032;-75
2022/12/06 10:11:53;;;;;;;10.02;3.50;;;5.20;99.90;;;;;;5100837;28;20558;-75
2022/12/06 10:15:02;;;;;;;10.30;3.70;;;5.20;99.90;;;;;;5086004;28;20428;-76
2022/12/06 10:18:09;;;;;;;9.68;3.55;;;5.20;99.90;;;;;;5089753;28;20046;-73
2022/12/06 10:20:52;;;;;;;8.57;3.58;;;5.20;99.90;;;;;;5075948;28;20039;-74
2022/12/06 10:23:33;;;;;;;10.32;3.28;;;5.30;99.90;;;;;;5060795;28;20031;-75
2022/12/06 10:26:20;;;;;;;8.35;3.60;;;5.30;99.90;;;;;;5071822;28;20104;-75
2022/12/06 10:29:21;;;;;;;9.48;3.50;;;5.40;99.90;;;;;;5088586;28;20055;-74
2022/12/06 10:31:59;;;;;;;9.13;3.33;;;5.40;99.90;;;;;;5077696;28;20043;-74
2022/12/06 10:34:34;;;;;;;10.65;3.58;;;5.50;99.90;;;;;;5086980;28;20040;-74
2022/12/06 10:37:16;;;;;;;11.55;3.28;;;5.50;99.90;;;;;;5093737;28;20067;-75
2022/12/06 10:39:54;;;;;;;8.68;3.25;;;5.70;99.90;;;;;;5086671;28;20071;-76
2022/12/06 10:42:30;;;;;;;10.15;4.13;;;5.70;99.90;;;;;;5092296;28;20055;-75
2022/12/06 10:47:02;;;;;;;9.20;3.60;;;5.80;99.90;;;;;;5074609;28;20069;-74
2022/12/06 10:47:55;;;;;;;9.20;3.38;;;6.70;99.90;;;;;;5088715;28;20044;-74
2022/12/06 10:50:26;;;;;;;9.75;3.63;;;6.00;99.90;;;;;;5094411;28;20044;-75
2022/12/06 10:52:57;;;;;;;9.90;3.97;;;6.10;99.90;;;;;;5070337;28;20047;-75
2022/12/06 10:55:53;;;;;;;9.80;3.55;;;6.10;99.90;;;;;;5078202;28;20119;-74
2022/12/06 10:58:47;;;;;;;11.85;3.63;;;6.10;99.90;;;;;;5088971;28;20442;-75
2022/12/06 11:01:24;;;;;;;10.57;3.70;;;6.20;99.90;;;;;;5089497;28;20271;-75
2022/12/06 11:04:06;;;;;;;10.13;3.50;;;6.20;99.90;;;;;;5086393;28;20051;-75
2022/12/06 11:06:50;;;;;;;11.13;3.40;;;6.20;99.90;;;;;;5084647;28;20047;-75
2022/12/06 11:09:37;;;;;;;8.98;3.15;;;6.10;99.90;;;;;;5088501;28;20040;-73
2022/12/06 11:12:27;;;;;;;7.50;3.25;;;6.40;99.90;;;;;;5087512;28;20111;-76
2022/12/06 11:14:59;;;;;;;9.10;3.50;;;6.00;99.90;;;;;;5082642;28;20044;-75
2022/12/06 11:17:35;;;;;;;8.05;3.35;;;6.00;99.90;;;;;;5090535;28;20044;-74
2022/12/06 11:20:26;;;;;;;9.75;3.58;;;5.90;99.90;;;;;;5091361;28;20079;-74
2022/12/06 11:23:05;;;;;;;9.88;3.38;;;6.00;99.90;;;;;;5071679;28;20139;-74
2022/12/06 11:26:05;;;;;;;10.98;2.90;;;6.00;99.90;;;;;;5091107;28;20048;-74
2022/12/06 11:28:34;;;;;;;7.93;2.75;;;6.00;99.90;;;;;;5094887;28;20040;-75
2022/12/06 11:31:03;;;;;;;6.75;2.70;;;6.00;99.90;;;;;;5102182;28;20043;-75
2022/12/06 11:33:32;;;;;;;9.18;2.67;;;6.00;99.90;;;;;;5080938;28;20162;-75
2022/12/06 11:36:02;;;;;;;9.18;2.38;;;6.00;99.90;;;;;;5094116;28;20043;-74
2022/12/06 11:38:28;;;;;;;8.80;2.80;;;6.00;99.90;;;;;;5094256;28;20078;-75
2022/12/06 11:41:03;;;;;;;7.97;2.50;;;5.90;99.90;;;;;;5105260;28;20051;-74
2022/12/06 11:43:34;;;;;;;8.32;2.20;;;5.90;99.90;;;;;;5080137;28;20040;-76
2022/12/06 11:46:01;;;;;;;8.18;2.60;;;7.20;99.90;;;;;;5087782;28;20052;-75
2022/12/06 11:48:31;;;;;;;8.20;2.13;;;6.10;99.90;;;;;;5099329;28;20027;-75
2022/12/06 11:50:57;;;;;;;6.93;2.35;;;6.20;99.90;;;;;;5098098;28;20036;-74
2022/12/06 11:53:58;;;;;;;7.70;2.50;;;6.60;99.90;;;;;;5090247;28;20397;-75
2022/12/06 11:56:25;;;;;;;8.55;2.67;;;6.40;99.90;;;;;;5082535;28;20554;-74
2022/12/06 11:59:25;;;;;;;8.90;2.55;;;6.50;99.90;;;;;;5091823;28;20043;-74
2022/12/06 12:02:02;;;;;;;8.10;2.20;;;6.60;99.90;;;;;;5043857;28;20568;-75
2022/12/06 12:04:38;;;;;;;9.05;2.50;;;6.60;99.90;;;;;;5096488;28;20039;-75
2022/12/06 12:07:18;;;;;;;8.45;2.80;;;6.70;99.90;;;;;;5085954;28;20414;-75
2022/12/06 12:09:50;;;;;;;7.10;2.50;;;6.70;99.90;;;;;;5097393;28;20035;-75
2022/12/06 12:15:31;;;;;;;8.15;2.50;;;6.80;99.90;;;;;;5091774;28;20062;-74
2022/12/06 12:17:58;;;;;;;5.95;2.20;;;6.90;99.90;;;;;;5073607;28;20040;-75
2022/12/06 12:20:41;;;;;;;7.35;2.20;;;6.90;99.90;;;;;;5091901;28;20040;-76
2022/12/06 12:23:23;;;;;;;6.82;2.13;;;7.00;99.90;;;;;;5100315;28;20075;-75
2022/12/06 12:26:02;;;;;;;7.75;2.33;;;7.10;99.90;;;;;;5090723;28;20058;-75
2022/12/06 12:28:31;;;;;;;6.45;2.25;;;8.30;99.90;;;;;;5091509;28;20039;-75
2022/12/06 12:31:22;;;;;;;6.13;2.20;;;7.20;99.90;;;;;;5091721;28;20044;-75
2022/12/06 12:34:10;;;;;;;6.95;2.28;;;7.20;99.90;;;;;;5092590;28;20459;-75
2022/12/06 12:36:36;;;;;;;6.93;2.20;;;7.20;99.90;;;;;;5084531;28;20093;-75
2022/12/06 12:39:02;;;;;;;7.55;2.28;;;7.20;99.90;;;;;;5078510;28;20047;-75
2022/12/06 12:41:43;;;;;;;6.25;2.10;;;7.20;99.90;;;;;;5093855;28;20452;-75
2022/12/06 12:44:18;;;;;;;6.80;2.20;;;7.20;99.90;;;;;;5091789;28;20031;-75
2022/12/06 12:46:49;;;;;;;7.47;2.17;;;7.20;99.90;;;;;;5080746;28;20082;-75
2022/12/06 12:49:34;;;;;;;7.32;2.65;;;7.20;99.90;;;;;;5094491;28;20039;-74
2022/12/06 12:52:20;;;;;;;7.88;2.40;;;7.10;99.90;;;;;;5089983;28;20051;-75
2022/12/06 12:54:59;;;;;;;6.75;2.10;;;8.00;99.90;;;;;;5092985;28;20100;-76
2022/12/06 12:57:25;;;;;;;6.50;1.98;;;7.20;99.90;;;;;;5090094;28;20067;-74
2022/12/06 12:59:51;;;;;;;8.82;2.22;;;7.20;99.90;;;;;;5083649;28;20125;-75
2022/12/06 13:02:25;;;;;;;6.18;2.10;;;7.20;99.90;;;;;;5086747;28;20040;-75
2022/12/06 13:05:26;;;;;;;8.43;2.30;;;7.10;99.90;;;;;;5073327;28;20460;-75
2022/12/06 13:07:58;;;;;;;7.80;2.30;;;7.10;99.90;;;;;;5052675;28;20059;-75
2022/12/06 13:10:28;;;;;;;7.35;2.13;;;7.10;99.90;;;;;;5101433;28;20067;-76
2022/12/06 13:12:58;;;;;;;7.22;2.22;;;7.10;99.90;;;;;;5091465;28;20078;-76
2022/12/06 13:15:45;;;;;;;6.60;2.30;;;7.00;99.90;;;;;;5085114;28;20036;-75
2022/12/06 13:18:20;;;;;;;6.20;2.20;;;7.00;99.90;;;;;;5088518;28;20040;-74
2022/12/06 13:20:48;;;;;;;7.07;2.35;;;7.00;99.90;;;;;;5100727;28;20067;-75
2022/12/06 13:23:22;;;;;;;7.22;2.38;;;7.00;99.90;;;;;;5085658;28;20553;-75
2022/12/06 13:26:17;;;;;;;7.03;2.40;;;7.00;99.90;;;;;;5079154;28;20082;-74
2022/12/06 13:28:49;;;;;;;6.72;2.40;;;7.00;99.90;;;;;;5073839;28;20036;-75
2022/12/06 13:31:20;;;;;;;8.38;2.55;;;6.90;99.90;;;;;;5089489;28;20110;-75
2022/12/06 13:33:53;;;;;;;7.28;2.45;;;7.00;99.90;;;;;;5073883;28;20094;-75
2022/12/06 13:36:24;;;;;;;8.48;2.47;;;7.00;99.90;;;;;;5090316;28;20047;-75
2022/12/06 13:38:54;;;;;;;8.10;2.17;;;6.90;99.90;;;;;;5092004;28;20048;-75
2022/12/06 13:44:58;;;;;;;7.97;2.40;;;7.00;99.90;;;;;;5087221;28;20036;-76
2022/12/06 13:47:30;;;;;;;6.50;2.40;;;6.90;99.90;;;;;;5046262;28;20048;-76